< < Back
Terminal Aerodrome Forecast


Current Version              Previous Versions:   1  2  3  4  5  6  7  8  9  

Terminal Aerodrome Forecast

863
FTUS42 KILM 231120
TAFILM
TAF
KILM 231120Z 2312/2412 04003KT P6SM SCT100
     FM231800 07008KT P6SM SKC
     FM240200 03002KT P6SM SKC=

Latest METAR

184
SAUS70 KWBC 240200 RRA
MTRILM
METAR KILM 240153Z AUTO 08006KT 10SM CLR 26/18 A3025 RMK AO2 SLP244
T02560183


USA.gov is the U.S. government's official web portal to all federal, state and local government web resources and services.